Date,TemperatureHighF,TemperatureAvgF,TemperatureLowF,DewpointHighF,DewpointAvgF,DewpointLowF,HumidityHigh,HumidityAvg,HumidityLow,PressureMaxIn,PressureMinIn,WindSpeedMaxMPH,WindSpeedAvgMPH,GustSpeedMaxMPH,PrecipitationSumIn
2013-2-1,40,37,31,52,52,52,0,0,100,29.78,29.30,19,10,31,0.08
2013-2-2,41,34,30,52,52,52,0,0,100,30.14,29.78,14,7,23,0.00
2013-2-3,47,43,34,52,52,52,0,0,100,29.98,29.47,32,20,42,0.00
2013-2-4,47,35,30,52,52,52,0,0,100,29.54,29.31,42,21,58,0.09
2013-2-5,40,35,29,52,52,52,0,0,100,29.55,29.07,26,15,43,0.00
2013-2-6,40,36,31,52,52,52,0,0,100,30.11,29.55,21,12,31,0.00
2013-2-7,38,34,31,52,52,52,0,0,100,30.04,29.97,9,4,13,0.00
2013-2-8,41,38,33,52,52,52,0,0,100,30.14,30.00,21,7,26,0.05
2013-2-9,39,37,35,52,52,52,0,0,100,30.09,29.78,15,5,19,0.05
2013-2-10,37,35,33,52,52,52,0,0,100,29.78,29.39,25,13,32,0.00
2013-2-11,39,34,32,52,52,52,0,0,100,29.91,29.47,21,11,29,0.00
2013-2-12,35,33,32,52,52,52,0,0,100,30.07,29.91,14,7,19,0.00
2013-2-13,43,35,30,52,52,52,0,0,100,30.05,29.50,45,25,56,0.05
2013-2-14,45,42,40,52,52,52,0,0,100,29.79,29.53,25,13,33,0.02
2013-2-15,47,42,37,52,52,52,0,0,100,30.09,29.79,17,8,24,0.00
2013-2-16,47,43,37,52,52,52,0,0,100,30.10,30.02,18,9,23,0.00
2013-2-17,49,42,34,52,52,52,0,0,100,30.09,30.03,16,5,21,0.00
2013-2-18,54,40,31,52,52,52,0,0,100,30.09,30.02,8,3,10,0.00
2013-2-19,44,38,31,52,52,52,0,0,100,30.12,30.04,12,5,16,0.00
2013-2-20,40,36,30,52,52,52,0,0,100,30.27,30.10,17,7,21,0.00
2013-2-21,36,32,27,52,52,52,0,0,100,30.30,30.23,21,8,28,0.00
2013-2-22,34,32,30,52,52,52,0,0,100,30.29,30.21,15,3,18,0.00
2013-2-23,42,34,30,52,52,52,0,0,100,30.35,30.19,11,4,14,0.00
2013-2-24,39,34,32,52,52,52,0,0,100,30.45,30.32,12,2,19,0.15
2013-2-25,44,36,32,52,52,52,0,0,100,30.61,30.43,11,4,14,0.01
2013-2-26,44,37,31,52,52,52,0,0,100,30.66,30.56,17,6,20,0.00
2013-2-27,54,40,28,52,52,52,0,0,100,30.64,30.54,7,3,9,0.00
2013-2-28,56,43,33,52,52,52,0,0,100,30.54,30.46,8,2,10,0.00